createdAt,value
2023-06-22T00:00:12.373Z,68.83
2023-06-22T00:01:14.773Z,68.82
2023-06-22T00:02:17.476Z,69.25
2023-06-22T00:03:21.199Z,69.03
2023-06-22T00:04:23.654Z,69.46
2023-06-22T00:05:25.820Z,70.01
2023-06-22T00:06:28.216Z,69.81
2023-06-22T00:07:30.764Z,69.72
2023-06-22T00:08:32.924Z,69.77
2023-06-22T00:09:35.119Z,70.40
2023-06-22T00:10:37.450Z,69.87
2023-06-22T00:11:40.332Z,70.32
2023-06-22T00:12:42.648Z,69.92
2023-06-22T00:13:45.659Z,70.11
2023-06-22T00:14:48.085Z,69.65
2023-06-22T00:15:51.336Z,70.39
2023-06-22T00:16:58.376Z,70.10
2023-06-22T00:18:01.305Z,69.88
2023-06-22T00:19:04.108Z,70.12
2023-06-22T00:20:10.478Z,70.17
2023-06-22T00:21:13.107Z,70.04
2023-06-22T00:22:17.144Z,69.90
2023-06-22T00:23:24.324Z,69.80
2023-06-22T00:24:26.616Z,69.85
2023-06-22T00:25:29.764Z,69.85
2023-06-22T00:26:32.426Z,69.03
2023-06-22T00:27:36.702Z,69.01
2023-06-22T00:28:38.780Z,69.29
2023-06-22T00:29:41.658Z,68.90
2023-06-22T00:30:43.999Z,68.64
2023-06-22T00:31:46.967Z,68.37
2023-06-22T00:32:50.991Z,68.56
2023-06-22T00:33:53.227Z,68.72
2023-06-22T00:34:55.814Z,68.23
2023-06-22T00:35:59.176Z,68.27
2023-06-22T00:37:02.036Z,68.30
2023-06-22T00:38:05.642Z,68.46
2023-06-22T00:39:08.599Z,68.29
2023-06-22T00:40:12.517Z,68.57
2023-06-22T00:41:15.014Z,68.53
2023-06-22T00:42:18.194Z,68.09
2023-06-22T00:43:21.036Z,68.05
2023-06-22T00:44:23.193Z,67.39
2023-06-22T00:45:27.808Z,67.60
2023-06-22T00:46:30.761Z,68.03
2023-06-22T00:47:35.076Z,67.84
2023-06-22T00:48:37.494Z,67.02
2023-06-22T00:49:40.034Z,66.37
2023-06-22T00:50:43.067Z,66.59
2023-06-22T00:51:47.473Z,66.78
2023-06-22T00:52:53.420Z,66.61
2023-06-22T00:53:56.084Z,66.99
2023-06-22T00:55:01.307Z,67.38
2023-06-22T00:56:06.277Z,66.39
2023-06-22T00:57:11.504Z,67.28
2023-06-22T00:58:14.256Z,66.47
2023-06-22T00:59:18.317Z,66.93
2023-06-22T01:00:24.480Z,66.27
2023-06-22T01:01:27.044Z,64.97
2023-06-22T01:02:32.051Z,65.94
2023-06-22T01:03:34.581Z,66.17
2023-06-22T01:04:40.511Z,66.62
2023-06-22T01:05:45.127Z,66.20
2023-06-22T01:06:54.858Z,66.26
2023-06-22T01:08:11.503Z,66.26
2023-06-22T01:09:30.749Z,66.58
2023-06-22T01:10:40.469Z,66.60
2023-06-22T01:11:56.479Z,66.25
2023-06-22T01:13:09.612Z,66.47
2023-06-22T01:14:15.503Z,66.59
2023-06-22T01:15:32.903Z,66.87
2023-06-22T01:16:37.750Z,67.04
2023-06-22T01:17:43.672Z,67.81
2023-06-22T01:18:49.983Z,67.83
2023-06-22T01:19:57.733Z,67.84
2023-06-22T01:21:02.956Z,68.30
2023-06-22T01:22:09.220Z,68.50
2023-06-22T01:23:38.277Z,68.86
2023-06-22T01:24:44.236Z,69.03
2023-06-22T01:26:20.880Z,68.60
2023-06-22T01:27:29.971Z,68.96
2023-06-22T01:28:47.961Z,69.25
2023-06-22T01:29:53.205Z,69.30
2023-06-22T01:30:58.416Z,69.54
2023-06-22T01:32:04.331Z,69.34
2023-06-22T01:33:11.090Z,69.42
2023-06-22T01:34:15.116Z,69.26
2023-06-22T01:35:19.018Z,69.25
2023-06-22T01:36:23.966Z,69.56
2023-06-22T01:37:27.892Z,69.39
2023-06-22T01:38:31.664Z,69.35
2023-06-22T01:39:35.308Z,69.48
2023-06-22T01:40:39.099Z,69.15
2023-06-22T01:41:43.894Z,69.23
2023-06-22T01:42:47.389Z,69.37
2023-06-22T01:43:50.267Z,69.36
2023-06-22T01:44:54.364Z,69.39
2023-06-22T01:45:58.799Z,69.64
2023-06-22T01:47:02.292Z,69.51
2023-06-22T01:48:05.529Z,70.04
2023-06-22T01:49:09.383Z,70.04
2023-06-22T01:50:13.746Z,70.14
2023-06-22T01:51:16.567Z,70.21
2023-06-22T01:52:21.528Z,70.45
2023-06-22T01:53:25.668Z,70.58
2023-06-22T01:54:28.239Z,70.38
2023-06-22T01:55:30.619Z,70.02
2023-06-22T01:56:33.416Z,69.36
2023-06-22T01:57:36.294Z,69.61
2023-06-22T01:58:42.275Z,69.61
2023-06-22T01:59:57.300Z,69.93
2023-06-22T02:01:04.291Z,69.88
2023-06-22T02:02:12.375Z,70.60
2023-06-22T02:03:18.565Z,70.39
2023-06-22T02:04:24.711Z,69.92
2023-06-22T02:05:30.611Z,69.96
2023-06-22T02:06:37.991Z,70.08
2023-06-22T02:07:43.904Z,69.89
2023-06-22T02:08:49.863Z,70.46
2023-06-22T02:09:55.666Z,71.05
2023-06-22T02:11:00.669Z,71.08
2023-06-22T02:12:05.738Z,71.11
2023-06-22T02:13:10.411Z,70.98
2023-06-22T02:14:14.038Z,71.03
2023-06-22T02:15:17.734Z,71.33
2023-06-22T02:16:22.747Z,71.51
2023-06-22T02:17:27.296Z,71.73
2023-06-22T02:18:30.113Z,71.69
2023-06-22T02:19:34.872Z,71.70
2023-06-22T02:20:38.350Z,71.34
2023-06-22T02:21:41.396Z,71.48
2023-06-22T02:22:43.852Z,71.01
2023-06-22T02:23:47.661Z,70.98
2023-06-22T02:24:50.002Z,71.29
2023-06-22T02:25:52.273Z,71.03
2023-06-22T02:26:54.742Z,72.38
2023-06-22T02:27:56.940Z,72.79
2023-06-22T02:28:59.516Z,73.52
2023-06-22T02:30:02.515Z,73.68
2023-06-22T02:31:04.927Z,73.65
2023-06-22T02:32:08.078Z,73.68
2023-06-22T02:33:10.730Z,74.61
2023-06-22T02:34:15.586Z,74.64
2023-06-22T02:35:17.953Z,74.30
2023-06-22T02:36:23.526Z,74.30
2023-06-22T02:37:28.505Z,74.09
2023-06-22T02:38:36.832Z,74.36
2023-06-22T02:39:39.150Z,74.00
2023-06-22T02:40:43.583Z,73.65
2023-06-22T02:41:45.966Z,73.07
2023-06-22T02:42:48.731Z,73.14
2023-06-22T02:43:51.826Z,72.58
2023-06-22T02:44:56.877Z,72.50
2023-06-22T02:45:59.327Z,72.70
2023-06-22T02:47:02.236Z,73.15
2023-06-22T02:48:05.470Z,72.84
2023-06-22T02:49:07.870Z,73.39
2023-06-22T02:50:10.920Z,73.66
2023-06-22T02:51:13.420Z,74.21
2023-06-22T02:52:15.808Z,74.60
2023-06-22T02:53:18.003Z,74.33
2023-06-22T02:54:21.843Z,74.06
2023-06-22T02:55:27.236Z,73.92
2023-06-22T02:56:31.616Z,73.35
2023-06-22T02:57:36.126Z,73.44
2023-06-22T02:58:38.944Z,73.66
2023-06-22T02:59:43.399Z,73.85
2023-06-22T03:00:46.792Z,73.90
2023-06-22T03:01:49.459Z,73.28
2023-06-22T03:02:53.726Z,73.32
2023-06-22T03:03:56.611Z,72.81
2023-06-22T03:05:01.888Z,72.81
2023-06-22T03:06:05.448Z,73.03
2023-06-22T03:07:08.913Z,72.98
2023-06-22T03:08:11.847Z,73.32
2023-06-22T03:09:14.284Z,73.74
2023-06-22T03:10:16.806Z,73.72
2023-06-22T03:11:19.404Z,73.73
2023-06-22T03:12:21.787Z,73.92
2023-06-22T03:13:28.853Z,73.84
2023-06-22T03:14:31.338Z,73.49
2023-06-22T03:15:33.596Z,73.36
2023-06-22T03:16:37.351Z,73.60
2023-06-22T03:17:40.824Z,73.50
2023-06-22T03:18:44.156Z,73.67
2023-06-22T03:19:48.208Z,73.75
2023-06-22T03:20:51.849Z,73.73
2023-06-22T03:21:54.098Z,73.71
2023-06-22T03:22:56.385Z,73.56
2023-06-22T03:23:59.044Z,73.71
2023-06-22T03:25:01.868Z,73.08
2023-06-22T03:26:05.179Z,72.61
2023-06-22T03:27:07.515Z,72.73
2023-06-22T03:28:10.252Z,72.52
2023-06-22T03:29:12.892Z,72.31
2023-06-22T03:30:15.703Z,72.04
2023-06-22T03:31:19.971Z,72.00
2023-06-22T03:32:23.161Z,71.81
2023-06-22T03:33:25.918Z,71.33
2023-06-22T03:34:28.246Z,71.04
2023-06-22T03:35:30.943Z,71.21
2023-06-22T03:36:33.717Z,70.40
2023-06-22T03:37:37.839Z,70.40
2023-06-22T03:38:42.976Z,70.79
2023-06-22T03:39:45.618Z,70.91
2023-06-22T03:40:51.466Z,71.20
2023-06-22T03:41:54.140Z,71.29
2023-06-22T03:42:58.657Z,71.26
2023-06-22T03:44:01.262Z,71.33
2023-06-22T03:45:04.909Z,71.33
2023-06-22T03:46:08.912Z,71.04
2023-06-22T03:47:11.280Z,71.05
2023-06-22T03:48:14.024Z,71.18
2023-06-22T03:49:16.770Z,71.05
2023-06-22T03:50:20.822Z,70.62
2023-06-22T03:51:24.140Z,70.65
2023-06-22T03:52:26.383Z,70.10
2023-06-22T03:53:29.677Z,70.03
2023-06-22T03:54:32.383Z,69.45
2023-06-22T03:55:35.764Z,69.09
2023-06-22T03:56:39.041Z,69.12
2023-06-22T03:57:42.264Z,69.03
2023-06-22T03:58:45.889Z,68.83
2023-06-22T03:59:48.445Z,68.54
2023-06-22T04:00:52.036Z,68.37
2023-06-22T04:01:56.072Z,68.42
2023-06-22T04:02:59.495Z,68.37
2023-06-22T04:04:02.449Z,68.29
2023-06-22T04:05:06.567Z,68.07
2023-06-22T04:06:10.132Z,68.55
2023-06-22T04:07:12.462Z,68.43
2023-06-22T04:08:16.018Z,68.70
2023-06-22T04:09:18.461Z,68.33
2023-06-22T04:10:27.984Z,69.07
2023-06-22T04:11:30.475Z,69.87
2023-06-22T04:12:33.863Z,69.85
2023-06-22T04:13:36.251Z,70.33
2023-06-22T04:14:38.604Z,70.12
2023-06-22T04:15:41.401Z,69.74
2023-06-22T04:16:43.923Z,69.74
2023-06-22T04:17:46.367Z,70.40
2023-06-22T04:18:49.178Z,70.57
2023-06-22T04:19:52.387Z,70.72
2023-06-22T04:20:54.984Z,70.96
2023-06-22T04:21:57.343Z,71.15
2023-06-22T04:22:59.868Z,71.23
2023-06-22T04:24:03.099Z,71.12
2023-06-22T04:25:08.093Z,71.03
2023-06-22T04:26:10.772Z,71.19
2023-06-22T04:27:13.124Z,70.67
2023-06-22T04:28:15.813Z,70.45
2023-06-22T04:29:18.554Z,69.62
2023-06-22T04:30:21.129Z,69.52
2023-06-22T04:31:25.212Z,69.38
2023-06-22T04:32:27.639Z,69.09
2023-06-22T04:33:30.086Z,68.82
2023-06-22T04:34:32.887Z,68.71
2023-06-22T04:35:35.708Z,68.65
2023-06-22T04:36:41.951Z,68.54
2023-06-22T04:37:44.136Z,68.40
2023-06-22T04:38:46.357Z,68.25
2023-06-22T04:39:48.654Z,68.73
2023-06-22T04:40:51.815Z,68.72
2023-06-22T04:41:55.453Z,68.64
2023-06-22T04:42:57.938Z,68.36
2023-06-22T04:44:01.456Z,68.56
2023-06-22T04:45:05.161Z,68.73
2023-06-22T04:46:08.027Z,68.62
2023-06-22T04:47:10.397Z,68.08
2023-06-22T04:48:14.866Z,70.70
2023-06-22T04:49:17.525Z,70.72
2023-06-22T04:50:21.696Z,70.42
2023-06-22T04:51:25.682Z,70.74
2023-06-22T04:52:28.527Z,71.26
2023-06-22T04:53:32.402Z,72.24
2023-06-22T04:54:36.778Z,72.64
2023-06-22T04:55:42.085Z,73.40
2023-06-22T04:56:46.900Z,73.63
2023-06-22T04:57:49.755Z,73.64
2023-06-22T04:58:52.643Z,73.49
2023-06-22T04:59:54.855Z,73.21
2023-06-22T05:00:57.614Z,72.78
2023-06-22T05:02:01.584Z,71.91
2023-06-22T05:03:18.519Z,72.32
2023-06-22T05:04:09.454Z,72.51
2023-06-22T05:06:25.260Z,71.98
2023-06-22T05:07:28.494Z,71.55
2023-06-22T05:08:30.728Z,71.47
2023-06-22T05:09:34.312Z,70.80
2023-06-22T05:10:38.620Z,71.51
2023-06-22T05:11:41.730Z,72.25
2023-06-22T05:12:44.044Z,72.22
2023-06-22T05:13:47.391Z,71.94
2023-06-22T05:14:49.656Z,71.38
2023-06-22T05:15:51.637Z,71.60
2023-06-22T05:16:54.909Z,71.10
2023-06-22T05:17:58.992Z,70.99
2023-06-22T05:19:03.610Z,70.50
2023-06-22T05:20:09.363Z,69.80
2023-06-22T05:21:11.622Z,69.48
2023-06-22T05:22:15.045Z,69.23
2023-06-22T05:23:18.601Z,68.86
2023-06-22T05:24:20.807Z,68.44
2023-06-22T05:25:23.175Z,68.25
2023-06-22T05:26:25.460Z,67.84
2023-06-22T05:27:27.413Z,67.97
2023-06-22T05:28:29.499Z,68.39
2023-06-22T05:29:32.439Z,68.31
2023-06-22T05:30:34.702Z,68.50
2023-06-22T05:31:37.157Z,68.55
2023-06-22T05:32:39.627Z,69.42
2023-06-22T05:33:44.244Z,70.19
2023-06-22T05:34:46.729Z,69.69
2023-06-22T05:35:50.112Z,69.89
2023-06-22T05:36:52.519Z,70.00
2023-06-22T05:37:55.809Z,69.67
2023-06-22T05:38:59.051Z,70.71
2023-06-22T05:40:01.419Z,70.33
2023-06-22T05:41:06.308Z,70.32
2023-06-22T05:42:10.887Z,70.82
2023-06-22T05:43:13.821Z,70.89
2023-06-22T05:44:16.094Z,70.74
2023-06-22T05:45:18.612Z,70.53
2023-06-22T05:46:21.838Z,70.24
2023-06-22T05:47:24.356Z,69.85
2023-06-22T05:48:26.579Z,69.83
2023-06-22T05:49:30.644Z,69.54
2023-06-22T05:50:33.616Z,69.12
2023-06-22T05:51:36.552Z,68.16
2023-06-22T05:52:38.833Z,67.52
2023-06-22T05:53:41.003Z,66.27
2023-06-22T05:54:44.641Z,66.34
2023-06-22T05:55:47.617Z,66.06
2023-06-22T05:56:50.093Z,65.71
2023-06-22T05:57:52.095Z,65.96
2023-06-22T05:58:55.507Z,66.35
2023-06-22T05:59:57.989Z,66.36
2023-06-22T06:01:02.187Z,66.36
2023-06-22T06:02:05.433Z,66.08
2023-06-22T06:03:09.089Z,65.87
2023-06-22T06:04:11.369Z,65.67
2023-06-22T06:05:18.041Z,65.64
2023-06-22T06:06:25.402Z,64.22
2023-06-22T06:07:27.883Z,63.58
2023-06-22T06:08:29.936Z,62.47
2023-06-22T06:09:32.246Z,62.52
2023-06-22T06:10:35.849Z,62.53
2023-06-22T06:11:39.426Z,61.46
2023-06-22T06:12:41.844Z,60.25
2023-06-22T06:13:44.733Z,59.87
2023-06-22T06:14:47.840Z,58.34
2023-06-22T06:15:51.950Z,58.96
2023-06-22T06:16:54.774Z,58.36
2023-06-22T06:17:57.132Z,57.83
2023-06-22T06:18:59.791Z,57.69
2023-06-22T06:20:03.932Z,57.27
2023-06-22T06:21:06.313Z,57.28
2023-06-22T06:22:08.535Z,58.26
2023-06-22T06:23:10.812Z,56.44
2023-06-22T06:24:13.898Z,55.98
2023-06-22T06:25:17.250Z,54.61
2023-06-22T06:26:21.844Z,55.13
2023-06-22T06:27:26.045Z,54.88
2023-06-22T06:28:28.473Z,56.57
2023-06-22T06:29:31.083Z,54.88
2023-06-22T06:30:34.244Z,55.22
2023-06-22T06:31:37.120Z,55.49
2023-06-22T06:32:40.088Z,55.67
2023-06-22T06:33:42.556Z,54.79
2023-06-22T06:34:44.986Z,53.90
2023-06-22T06:35:47.361Z,53.53
2023-06-22T06:36:49.685Z,54.28
2023-06-22T06:37:51.966Z,53.67
2023-06-22T06:38:55.155Z,54.91
2023-06-22T06:39:57.388Z,54.16
2023-06-22T06:40:59.956Z,54.42
2023-06-22T06:42:02.647Z,54.82
2023-06-22T06:43:05.702Z,54.42
2023-06-22T06:44:07.865Z,54.42
2023-06-22T06:45:12.343Z,54.32
2023-06-22T06:46:15.173Z,55.32
2023-06-22T06:47:18.136Z,53.38
2023-06-22T06:48:21.592Z,53.84
2023-06-22T06:49:25.132Z,54.81
2023-06-22T06:50:28.553Z,54.09
2023-06-22T06:51:31.322Z,53.87
2023-06-22T06:52:36.021Z,53.39
2023-06-22T06:53:38.980Z,54.67
2023-06-22T06:54:43.492Z,52.64
2023-06-22T06:55:47.122Z,52.60
2023-06-22T06:56:49.931Z,52.78
2023-06-22T06:57:53.174Z,52.56
2023-06-22T06:58:56.081Z,51.45
2023-06-22T06:59:58.504Z,50.33
2023-06-22T07:01:01.083Z,51.44
2023-06-22T07:02:03.673Z,50.95
2023-06-22T07:03:07.534Z,51.02
2023-06-22T07:04:10.055Z,51.36
2023-06-22T07:05:13.784Z,52.33
2023-06-22T07:06:17.939Z,51.70
2023-06-22T07:07:20.206Z,50.63
2023-06-22T07:08:23.169Z,50.27
2023-06-22T07:09:25.345Z,49.21
2023-06-22T07:10:29.122Z,49.07
2023-06-22T07:11:32.780Z,46.33
2023-06-22T07:12:35.335Z,50.00
2023-06-22T07:13:38.735Z,47.31
2023-06-22T07:14:41.801Z,46.12
2023-06-22T07:15:44.142Z,46.04
2023-06-22T07:16:46.311Z,46.92
2023-06-22T07:17:48.644Z,46.78
2023-06-22T07:18:50.840Z,47.56
2023-06-22T07:19:54.114Z,46.35
2023-06-22T07:20:56.650Z,45.20
2023-06-22T07:21:59.148Z,45.02
2023-06-22T07:23:02.335Z,44.49
2023-06-22T07:24:06.436Z,45.62
2023-06-22T07:25:14.772Z,46.14
2023-06-22T07:26:17.409Z,42.72
2023-06-22T07:27:20.496Z,43.27
2023-06-22T07:28:22.722Z,42.70
2023-06-22T07:29:24.930Z,45.57
2023-06-22T07:30:27.844Z,45.17
2023-06-22T07:31:31.321Z,46.30
2023-06-22T07:32:33.618Z,43.96
2023-06-22T07:33:36.052Z,42.90
2023-06-22T07:34:39.228Z,43.70
2023-06-22T07:35:41.724Z,43.70
2023-06-22T07:36:45.324Z,42.85
2023-06-22T07:37:47.889Z,42.60
2023-06-22T07:38:49.995Z,42.60
2023-06-22T07:39:54.041Z,45.04
2023-06-22T07:40:56.460Z,45.18
2023-06-22T07:41:58.614Z,44.34
2023-06-22T07:43:00.823Z,41.83
2023-06-22T07:44:05.330Z,41.93
2023-06-22T07:45:08.792Z,42.65
2023-06-22T07:46:12.523Z,43.57
2023-06-22T07:47:15.254Z,43.24
2023-06-22T07:48:18.832Z,43.14
2023-06-22T07:49:21.407Z,41.30
2023-06-22T07:50:23.929Z,41.00
2023-06-22T07:51:27.162Z,40.03
2023-06-22T07:52:30.481Z,39.80
2023-06-22T07:53:32.897Z,39.78
2023-06-22T07:54:35.685Z,42.11
2023-06-22T07:55:38.154Z,38.84
2023-06-22T07:56:40.480Z,40.64
2023-06-22T07:57:42.795Z,40.09
2023-06-22T07:58:47.070Z,40.77
2023-06-22T07:59:50.110Z,40.18
2023-06-22T08:00:52.751Z,38.47
2023-06-22T08:01:56.160Z,42.04
2023-06-22T08:02:59.244Z,38.59
2023-06-22T08:04:02.024Z,38.59
2023-06-22T08:05:19.155Z,38.76
2023-06-22T08:06:10.786Z,38.15
2023-06-22T08:07:13.599Z,37.71
2023-06-22T08:08:16.565Z,38.15
2023-06-22T08:09:19.968Z,37.63
2023-06-22T08:10:24.723Z,38.07
2023-06-22T08:11:27.143Z,38.78
2023-06-22T08:12:29.314Z,37.21
2023-06-22T08:13:31.628Z,37.85
2023-06-22T08:14:35.640Z,36.16
2023-06-22T08:15:37.823Z,37.13
2023-06-22T08:16:41.604Z,34.86
2023-06-22T08:17:45.779Z,34.82
2023-06-22T08:18:47.977Z,34.84
2023-06-22T08:19:50.394Z,33.81
2023-06-22T08:20:53.073Z,34.11
2023-06-22T08:21:55.461Z,34.30
2023-06-22T08:22:59.816Z,31.53
2023-06-22T08:24:02.891Z,31.71
2023-06-22T08:25:06.631Z,31.53
2023-06-22T08:26:09.888Z,31.01
2023-06-22T08:27:17.417Z,31.95
2023-06-22T08:28:19.867Z,32.72
2023-06-22T08:29:22.118Z,32.73
2023-06-22T08:30:24.558Z,32.71
2023-06-22T08:31:27.902Z,31.64
2023-06-22T08:32:30.757Z,33.06
2023-06-22T08:33:33.249Z,33.06
2023-06-22T08:34:36.167Z,33.16
2023-06-22T08:35:38.925Z,33.08
2023-06-22T08:36:43.131Z,34.49
2023-06-22T08:37:47.629Z,34.13
2023-06-22T08:38:51.828Z,32.78
2023-06-22T08:39:56.246Z,34.24
2023-06-22T08:40:58.716Z,35.06
2023-06-22T08:42:01.149Z,33.89
2023-06-22T08:43:03.445Z,32.23
2023-06-22T08:44:06.883Z,32.78
2023-06-22T08:45:10.592Z,34.48
2023-06-22T08:46:13.101Z,33.94
2023-06-22T08:47:15.247Z,34.05
2023-06-22T08:48:17.302Z,35.10
2023-06-22T08:49:19.483Z,34.09
2023-06-22T08:50:22.551Z,34.90
2023-06-22T08:51:25.717Z,34.86
2023-06-22T08:52:28.114Z,35.60
2023-06-22T08:53:31.312Z,35.40
2023-06-22T08:54:36.017Z,34.00
2023-06-22T08:55:38.489Z,34.44
2023-06-22T08:56:41.093Z,35.21
2023-06-22T08:57:44.839Z,34.94
2023-06-22T08:58:47.386Z,34.94
2023-06-22T08:59:50.189Z,35.39
2023-06-22T09:00:53.349Z,33.71
2023-06-22T09:01:58.607Z,33.57
2023-06-22T09:03:02.038Z,34.04
2023-06-22T09:04:08.256Z,33.80
2023-06-22T09:05:11.185Z,33.75
2023-06-22T09:06:15.279Z,33.80
2023-06-22T09:07:19.930Z,33.02
2023-06-22T09:08:22.308Z,33.36
2023-06-22T09:09:24.734Z,33.81
2023-06-22T09:10:27.627Z,33.48
2023-06-22T09:11:30.175Z,33.61
2023-06-22T09:12:33.381Z,33.63
2023-06-22T09:13:36.320Z,34.18
2023-06-22T09:14:38.727Z,34.60
2023-06-22T09:15:40.985Z,34.49
2023-06-22T09:16:43.505Z,35.58
2023-06-22T09:17:48.350Z,34.77
2023-06-22T09:18:50.934Z,34.92
2023-06-22T09:19:53.378Z,33.13
2023-06-22T09:20:56.040Z,34.34
2023-06-22T09:21:58.562Z,35.30
2023-06-22T09:23:01.526Z,33.67
2023-06-22T09:24:04.305Z,33.71
2023-06-22T09:25:08.123Z,33.64
2023-06-22T09:26:11.577Z,33.85
2023-06-22T09:27:13.908Z,34.20
2023-06-22T09:28:16.307Z,34.64
2023-06-22T09:29:19.707Z,33.83
2023-06-22T09:30:22.812Z,36.42
2023-06-22T09:31:27.754Z,35.55
2023-06-22T09:32:30.306Z,34.37
2023-06-22T09:33:32.530Z,36.22
2023-06-22T09:34:35.280Z,34.50
2023-06-22T09:35:38.216Z,35.75
2023-06-22T09:36:42.750Z,36.42
2023-06-22T09:37:46.215Z,36.32
2023-06-22T09:38:49.805Z,36.42
2023-06-22T09:39:52.343Z,36.34
2023-06-22T09:40:55.723Z,36.93
2023-06-22T09:42:00.638Z,34.89
2023-06-22T09:43:02.952Z,34.89
2023-06-22T09:44:05.393Z,35.00
2023-06-22T09:45:08.534Z,35.00
2023-06-22T09:46:12.371Z,34.55
2023-06-22T09:47:15.481Z,34.46
2023-06-22T09:48:19.121Z,34.23
2023-06-22T09:49:30.922Z,34.47
2023-06-22T09:50:26.185Z,33.62
2023-06-22T09:51:28.645Z,33.25
2023-06-22T09:52:43.596Z,34.64
2023-06-22T09:53:35.947Z,34.98
2023-06-22T09:54:39.213Z,35.10
2023-06-22T09:55:41.827Z,32.07
2023-06-22T09:56:44.553Z,33.13
2023-06-22T09:57:46.850Z,34.19
2023-06-22T09:58:53.024Z,35.79
2023-06-22T09:59:56.489Z,35.16
2023-06-22T10:00:59.408Z,33.05
2023-06-22T10:02:01.929Z,34.35
2023-06-22T10:03:05.419Z,33.10
2023-06-22T10:04:08.277Z,34.14
2023-06-22T10:05:11.062Z,33.60
2023-06-22T10:06:13.835Z,33.66
2023-06-22T10:07:17.158Z,32.99
2023-06-22T10:08:20.438Z,34.29
2023-06-22T10:09:22.974Z,35.11
2023-06-22T10:10:26.059Z,32.30
2023-06-22T10:11:30.375Z,32.30
2023-06-22T10:12:32.791Z,31.81
2023-06-22T10:13:35.541Z,30.62
2023-06-22T10:14:38.453Z,32.25
2023-06-22T10:15:41.790Z,30.52
2023-06-22T10:16:44.295Z,32.14
2023-06-22T10:17:46.472Z,29.68
2023-06-22T10:18:49.257Z,30.34
2023-06-22T10:19:51.435Z,33.36
2023-06-22T10:20:53.780Z,32.72
2023-06-22T10:21:56.487Z,32.17
2023-06-22T10:23:00.091Z,32.11
2023-06-22T10:24:05.361Z,31.15
2023-06-22T10:25:08.744Z,32.32
2023-06-22T10:26:11.360Z,31.64
2023-06-22T10:27:14.804Z,32.30
2023-06-22T10:28:17.531Z,30.40
2023-06-22T10:29:21.538Z,32.82
2023-06-22T10:30:24.353Z,29.75
2023-06-22T10:31:28.254Z,32.36
2023-06-22T10:32:30.699Z,32.66
2023-06-22T10:33:33.005Z,33.60
2023-06-22T10:34:35.982Z,30.97
2023-06-22T10:35:38.821Z,32.47
2023-06-22T10:36:42.457Z,32.91
2023-06-22T10:37:46.394Z,31.26
2023-06-22T10:38:49.154Z,32.63
2023-06-22T10:39:51.437Z,34.40
2023-06-22T10:40:54.280Z,32.86
2023-06-22T10:41:56.681Z,35.35
2023-06-22T10:42:59.049Z,35.25
2023-06-22T10:44:02.261Z,35.02
2023-06-22T10:45:05.259Z,34.94
2023-06-22T10:46:08.321Z,33.88
2023-06-22T10:47:11.842Z,33.44
2023-06-22T10:48:14.236Z,34.07
2023-06-22T10:49:16.387Z,32.54
2023-06-22T10:50:18.874Z,33.42
2023-06-22T10:51:21.371Z,34.20
2023-06-22T10:52:23.629Z,31.44
2023-06-22T10:53:26.272Z,34.43
2023-06-22T10:54:29.580Z,32.42
2023-06-22T10:55:47.122Z,32.42
2023-06-22T10:56:36.244Z,33.92
2023-06-22T10:57:41.816Z,33.95
2023-06-22T10:58:45.236Z,33.94
2023-06-22T10:59:47.440Z,33.08
2023-06-22T11:00:49.794Z,33.32
2023-06-22T11:01:52.109Z,33.06
2023-06-22T11:02:54.902Z,32.64
2023-06-22T11:03:57.702Z,32.31
2023-06-22T11:05:03.956Z,33.29
2023-06-22T11:06:06.512Z,32.79
2023-06-22T11:07:10.338Z,32.78
2023-06-22T11:08:12.674Z,31.69
2023-06-22T11:09:25.391Z,30.45
2023-06-22T11:10:21.083Z,30.79
2023-06-22T11:11:23.594Z,31.14
2023-06-22T11:12:26.188Z,30.54
2023-06-22T11:13:28.510Z,30.86
2023-06-22T11:14:30.721Z,30.75
2023-06-22T11:15:35.128Z,29.93
2023-06-22T11:16:37.625Z,31.39
2023-06-22T11:17:41.197Z,29.71
2023-06-22T11:18:43.965Z,29.50
2023-06-22T11:19:46.712Z,29.94
2023-06-22T11:20:51.514Z,29.18
2023-06-22T11:21:54.831Z,30.54
2023-06-22T11:22:57.185Z,30.22
2023-06-22T11:24:02.642Z,28.39
2023-06-22T11:25:06.611Z,30.17
2023-06-22T11:26:10.112Z,30.68
2023-06-22T11:27:13.340Z,29.93
2023-06-22T11:28:16.274Z,30.06
2023-06-22T11:29:31.918Z,28.39
2023-06-22T11:30:23.625Z,29.50
2023-06-22T11:31:27.337Z,28.69
2023-06-22T11:32:30.822Z,29.10
2023-06-22T11:33:33.674Z,29.23
2023-06-22T11:34:36.001Z,28.72
2023-06-22T11:35:39.262Z,30.00
2023-06-22T11:36:42.652Z,30.07
2023-06-22T11:37:46.230Z,28.95
2023-06-22T11:38:48.927Z,29.76
2023-06-22T11:39:59.617Z,28.48
2023-06-22T11:40:55.377Z,29.62
2023-06-22T11:42:00.448Z,29.33
2023-06-22T11:43:03.751Z,28.49
2023-06-22T11:44:06.265Z,28.49
2023-06-22T11:45:09.220Z,28.96
2023-06-22T11:46:12.067Z,28.24
2023-06-22T11:47:14.923Z,28.36
2023-06-22T11:48:17.115Z,28.71
2023-06-22T11:49:19.506Z,28.93
2023-06-22T11:50:22.979Z,28.12
2023-06-22T11:51:26.203Z,28.54
2023-06-22T11:52:28.547Z,27.12
2023-06-22T11:53:31.371Z,27.67
2023-06-22T11:54:34.717Z,28.86
2023-06-22T11:55:37.887Z,27.52
2023-06-22T11:56:41.161Z,28.45
2023-06-22T11:57:56.607Z,28.52
2023-06-22T11:58:59.951Z,27.64
2023-06-22T12:00:05.704Z,27.36
2023-06-22T12:01:09.064Z,28.45
2023-06-22T12:02:11.292Z,28.34
2023-06-22T12:03:15.253Z,27.58
2023-06-22T12:04:17.754Z,27.76
2023-06-22T12:05:22.624Z,27.50
2023-06-22T12:06:25.631Z,25.37
2023-06-22T12:07:28.148Z,27.08
2023-06-22T12:08:30.369Z,27.20
2023-06-22T12:09:32.578Z,26.51
2023-06-22T12:10:35.950Z,26.00
2023-06-22T12:11:38.238Z,26.58
2023-06-22T12:12:40.623Z,26.30
2023-06-22T12:13:43.293Z,26.40
2023-06-22T12:14:45.684Z,25.84
2023-06-22T12:15:48.118Z,27.29
2023-06-22T12:16:50.335Z,25.61
2023-06-22T12:17:52.812Z,27.18
2023-06-22T12:18:55.802Z,25.74
2023-06-22T12:19:59.183Z,26.22
2023-06-22T12:21:02.201Z,26.45
2023-06-22T12:22:04.477Z,26.03
2023-06-22T12:23:06.678Z,27.04
2023-06-22T12:24:09.366Z,26.00
2023-06-22T12:25:12.154Z,25.55
2023-06-22T12:26:15.629Z,27.68
2023-06-22T12:27:22.416Z,27.59
2023-06-22T12:28:25.802Z,27.64
2023-06-22T12:29:29.088Z,27.76
2023-06-22T12:30:33.260Z,27.31
2023-06-22T12:31:38.951Z,27.70
2023-06-22T12:32:41.342Z,27.81
2023-06-22T12:33:43.807Z,27.86
2023-06-22T12:34:46.153Z,27.58
2023-06-22T12:35:50.274Z,27.00
2023-06-22T12:36:54.999Z,25.27
2023-06-22T12:37:57.259Z,25.80
2023-06-22T12:38:59.747Z,26.13
2023-06-22T12:40:02.983Z,26.31
2023-06-22T12:41:05.193Z,26.46
2023-06-22T12:42:09.303Z,25.94
2023-06-22T12:43:11.412Z,26.11
2023-06-22T12:44:14.337Z,25.70
2023-06-22T12:45:17.796Z,25.58
2023-06-22T12:46:20.462Z,26.33
2023-06-22T12:47:23.238Z,26.20
2023-06-22T12:48:28.240Z,24.97
2023-06-22T12:49:30.572Z,26.29
2023-06-22T12:50:33.068Z,25.74
2023-06-22T12:51:39.407Z,25.37
2023-06-22T12:52:41.823Z,24.51
2023-06-22T12:53:45.233Z,25.75
2023-06-22T12:54:55.073Z,25.95
2023-06-22T12:55:51.573Z,25.32
2023-06-22T12:56:54.983Z,26.59
2023-06-22T12:57:59.640Z,26.20
2023-06-22T12:59:02.245Z,25.98
2023-06-22T13:00:05.884Z,25.83
2023-06-22T13:01:08.363Z,25.56
2023-06-22T13:02:10.791Z,26.16
2023-06-22T13:03:13.445Z,24.79
2023-06-22T13:04:16.718Z,24.69
2023-06-22T13:05:20.186Z,24.74
2023-06-22T13:06:23.393Z,24.18
2023-06-22T13:07:25.594Z,24.53
2023-06-22T13:09:07.147Z,23.91
2023-06-22T13:09:34.152Z,24.58
2023-06-22T13:10:37.682Z,25.21
2023-06-22T13:11:40.594Z,25.59
2023-06-22T13:12:42.787Z,24.11
2023-06-22T13:13:46.490Z,24.28
2023-06-22T13:14:49.021Z,25.43
2023-06-22T13:15:53.727Z,24.84
2023-06-22T13:16:58.670Z,23.65
2023-06-22T13:18:01.183Z,24.25
2023-06-22T13:19:03.924Z,23.87
2023-06-22T13:20:07.597Z,25.29
2023-06-22T13:21:10.257Z,24.39
2023-06-22T13:22:31.543Z,24.06
2023-06-22T13:23:35.015Z,24.57
2023-06-22T13:24:37.500Z,24.61
2023-06-22T13:25:40.043Z,24.90
2023-06-22T13:26:42.958Z,25.76
2023-06-22T13:27:46.491Z,26.08
2023-06-22T13:28:48.949Z,27.13
2023-06-22T13:29:51.979Z,27.41
2023-06-22T13:30:54.361Z,28.34
2023-06-22T13:31:57.772Z,27.50
2023-06-22T13:33:00.553Z,28.71
2023-06-22T13:34:03.126Z,29.06
2023-06-22T13:35:06.237Z,27.54
2023-06-22T13:36:08.869Z,26.90
2023-06-22T13:37:11.594Z,27.73
2023-06-22T13:38:13.884Z,28.04
2023-06-22T13:39:16.173Z,26.19